createdAt,value
2019-04-07T00:02:11.938Z,41.60
2019-04-07T00:04:41.964Z,39.98
2019-04-07T00:07:13.836Z,39.33
2019-04-07T00:09:44.724Z,38.42
2019-04-07T00:12:15.039Z,37.98
2019-04-07T00:14:45.073Z,38.13
2019-04-07T00:17:15.092Z,39.25
2019-04-07T00:19:45.121Z,37.78
2019-04-07T00:22:15.385Z,35.90
2019-04-07T00:24:45.515Z,38.65
2019-04-07T00:27:15.601Z,35.55
2019-04-07T00:29:45.733Z,39.18
2019-04-07T00:32:15.994Z,38.00
2019-04-07T00:34:46.729Z,35.75
2019-04-07T00:37:17.123Z,35.65
2019-04-07T00:39:47.712Z,37.63
2019-04-07T00:42:18.179Z,38.60
2019-04-07T00:44:49.617Z,38.80
2019-04-07T00:47:19.804Z,40.28
2019-04-07T00:49:50.144Z,38.42
2019-04-07T00:52:22.180Z,38.63
2019-04-07T00:54:52.320Z,39.38
2019-04-07T00:57:22.584Z,38.83
2019-04-07T00:59:54.050Z,38.48
2019-04-07T01:02:24.478Z,36.48
2019-04-07T01:04:55.055Z,37.40
2019-04-07T01:07:25.736Z,36.38
2019-04-07T01:09:55.994Z,36.65
2019-04-07T01:12:26.055Z,37.53
2019-04-07T01:14:56.569Z,38.38
2019-04-07T01:17:27.235Z,39.45
2019-04-07T01:19:57.352Z,38.78
2019-04-07T01:22:27.411Z,39.48
2019-04-07T01:24:57.467Z,40.28
2019-04-07T01:27:27.844Z,40.12
2019-04-07T01:29:59.577Z,40.05
2019-04-07T01:32:30.118Z,40.12
2019-04-07T01:35:00.200Z,39.15
2019-04-07T01:37:30.710Z,41.33
2019-04-07T01:40:01.542Z,40.20
2019-04-07T01:42:36.722Z,39.55
2019-04-07T01:45:11.550Z,40.40
2019-04-07T01:47:45.925Z,40.63
2019-04-07T01:50:17.709Z,37.88
2019-04-07T01:52:49.467Z,38.65
2019-04-07T01:55:30.253Z,38.42
2019-04-07T01:58:04.797Z,38.95
2019-04-07T02:00:52.704Z,38.17
2019-04-07T02:06:07.432Z,36.13
2019-04-07T02:08:40.380Z,36.00
2019-04-07T02:11:23.895Z,34.03
2019-04-07T02:14:11.665Z,35.65
2019-04-07T02:16:59.396Z,34.70
2019-04-07T02:19:37.097Z,34.75
2019-04-07T02:22:08.975Z,35.20
2019-04-07T02:24:46.655Z,32.80
2019-04-07T02:27:21.167Z,33.10
2019-04-07T02:29:58.901Z,33.55
2019-04-07T02:32:46.980Z,33.42
2019-04-07T02:35:34.544Z,33.55
2019-04-07T02:38:24.435Z,32.75
2019-04-07T02:41:01.897Z,32.93
2019-04-07T02:43:42.518Z,31.07
2019-04-07T02:46:24.077Z,32.58
2019-04-07T02:49:08.206Z,34.08
2019-04-07T02:51:43.466Z,32.58
2019-04-07T02:54:21.065Z,32.53
2019-04-07T02:59:24.225Z,30.97
2019-04-07T03:01:59.348Z,32.67
2019-04-07T03:04:44.311Z,33.58
2019-04-07T03:07:20.067Z,32.28
2019-04-07T03:09:52.035Z,30.97
2019-04-07T03:12:40.267Z,32.60
2019-04-07T03:15:12.982Z,32.63
2019-04-07T03:17:53.921Z,32.00
2019-04-07T03:20:43.536Z,33.50
2019-04-07T03:23:31.910Z,33.88
2019-04-07T03:26:16.284Z,33.60
2019-04-07T03:28:58.001Z,35.98
2019-04-07T03:31:36.566Z,34.95
2019-04-07T03:34:26.151Z,33.58
2019-04-07T03:37:18.329Z,33.45
2019-04-07T03:39:43.762Z,33.70
2019-04-07T03:42:21.558Z,32.85
2019-04-07T03:44:53.308Z,34.08
2019-04-07T03:47:37.621Z,32.50
2019-04-07T03:50:10.206Z,31.12
2019-04-07T03:52:42.910Z,34.30
2019-04-07T03:55:17.231Z,32.38
2019-04-07T03:57:50.843Z,32.20
2019-04-07T04:01:03.724Z,35.25
2019-04-07T04:03:38.678Z,34.43
2019-04-07T04:06:11.692Z,34.58
2019-04-07T04:08:46.351Z,33.83
2019-04-07T04:11:27.398Z,34.50
2019-04-07T04:13:59.258Z,33.20
2019-04-07T04:16:29.690Z,31.95
2019-04-07T04:19:00.025Z,32.40
2019-04-07T04:21:30.888Z,32.63
2019-04-07T04:24:01.186Z,31.05
2019-04-07T04:26:31.829Z,31.48
2019-04-07T04:29:02.636Z,31.10
2019-04-07T04:31:33.786Z,31.90
2019-04-07T04:34:04.363Z,30.72
2019-04-07T04:36:34.716Z,30.62
2019-04-07T04:39:07.974Z,31.35
2019-04-07T04:41:38.620Z,28.45
2019-04-07T04:44:10.142Z,29.37
2019-04-07T04:46:41.145Z,28.73
2019-04-07T04:49:11.800Z,28.15
2019-04-07T04:51:42.549Z,28.90
2019-04-07T04:54:12.964Z,27.95
2019-04-07T04:56:44.875Z,28.87
2019-04-07T04:59:15.027Z,28.35
2019-04-07T05:01:45.485Z,28.27
2019-04-07T05:04:16.087Z,28.55
2019-04-07T05:06:46.504Z,27.13
2019-04-07T05:09:16.730Z,28.00
2019-04-07T05:11:47.294Z,26.07
2019-04-07T05:14:17.404Z,26.40
2019-04-07T05:16:48.076Z,29.00
2019-04-07T05:19:18.411Z,30.30
2019-04-07T05:21:48.530Z,29.57
2019-04-07T05:24:19.479Z,28.65
2019-04-07T05:26:49.829Z,26.75
2019-04-07T05:29:20.138Z,25.85
2019-04-07T05:31:50.358Z,25.40
2019-04-07T05:34:22.158Z,25.92
2019-04-07T05:36:54.469Z,25.08
2019-04-07T05:39:24.994Z,24.20
2019-04-07T05:41:55.718Z,24.98
2019-04-07T05:44:26.796Z,25.48
2019-04-07T05:46:56.993Z,25.60
2019-04-07T05:49:27.174Z,25.20
2019-04-07T05:51:59.561Z,24.23
2019-04-07T05:54:29.561Z,24.37
2019-04-07T05:57:01.598Z,23.35
2019-04-07T05:59:32.839Z,23.10
2019-04-07T06:02:03.830Z,24.12
2019-04-07T06:04:34.906Z,23.60
2019-04-07T06:07:05.790Z,23.47
2019-04-07T06:09:36.216Z,23.30
2019-04-07T06:12:09.579Z,24.90
2019-04-07T06:14:38.074Z,25.27
2019-04-07T06:17:08.182Z,25.00
2019-04-07T06:19:41.083Z,24.27
2019-04-07T06:22:10.083Z,25.50
2019-04-07T06:24:40.656Z,24.12
2019-04-07T06:27:10.980Z,22.17
2019-04-07T06:29:41.210Z,22.50
2019-04-07T06:32:11.299Z,23.38
2019-04-07T06:34:44.148Z,24.30
2019-04-07T06:37:13.366Z,24.15
2019-04-07T06:39:45.176Z,24.15
2019-04-07T06:42:16.145Z,21.68
2019-04-07T06:44:46.274Z,20.97
2019-04-07T06:47:18.650Z,21.07
2019-04-07T06:49:50.961Z,22.02
2019-04-07T06:52:25.869Z,21.60
2019-04-07T06:55:14.649Z,21.33
2019-04-07T06:57:49.528Z,21.73
2019-04-07T07:00:26.843Z,21.07
2019-04-07T07:05:58.924Z,20.57
2019-04-07T07:08:42.226Z,20.60
2019-04-07T07:11:08.194Z,20.92
2019-04-07T07:13:44.706Z,20.80
2019-04-07T07:16:34.825Z,19.55
2019-04-07T07:19:09.543Z,20.48
2019-04-07T07:21:43.957Z,19.60
2019-04-07T07:24:15.677Z,20.70
2019-04-07T07:26:46.244Z,20.62
2019-04-07T07:29:17.232Z,18.85
2019-04-07T07:31:51.156Z,18.73
2019-04-07T07:34:19.920Z,18.70
2019-04-07T07:36:53.446Z,19.05
2019-04-07T07:39:23.150Z,18.95
2019-04-07T07:41:53.996Z,19.23
2019-04-07T07:44:24.606Z,19.70
2019-04-07T07:46:55.358Z,18.70
2019-04-07T07:49:28.833Z,18.17
2019-04-07T07:51:59.242Z,17.55
2019-04-07T07:54:30.433Z,18.32
2019-04-07T07:57:01.329Z,18.02
2019-04-07T07:59:35.670Z,18.45
2019-04-07T08:02:03.441Z,17.32
2019-04-07T08:04:34.543Z,17.25
2019-04-07T08:07:05.412Z,17.92
2019-04-07T08:09:35.724Z,16.25
2019-04-07T08:12:06.304Z,16.67
2019-04-07T08:14:37.070Z,16.42
2019-04-07T08:17:07.286Z,15.58
2019-04-07T08:19:40.690Z,16.23
2019-04-07T08:22:09.088Z,15.48
2019-04-07T08:24:39.151Z,14.80
2019-04-07T08:27:09.223Z,14.73
2019-04-07T08:29:39.830Z,14.33
2019-04-07T08:32:09.958Z,14.43
2019-04-07T08:34:40.421Z,14.35
2019-04-07T08:37:14.142Z,15.68
2019-04-07T08:40:18.793Z,15.45
2019-04-07T08:42:50.157Z,14.63
2019-04-07T08:45:21.664Z,13.68
2019-04-07T08:47:52.579Z,13.60
2019-04-07T08:50:23.744Z,12.65
2019-04-07T08:52:55.352Z,12.03
2019-04-07T08:55:25.679Z,10.70
2019-04-07T08:57:58.210Z,10.72
2019-04-07T09:00:30.216Z,10.18
2019-04-07T09:03:05.507Z,10.78
2019-04-07T09:05:32.314Z,10.25
2019-04-07T09:08:05.581Z,10.05
2019-04-07T09:10:49.207Z,10.05
2019-04-07T09:13:17.515Z,10.10
2019-04-07T09:16:05.306Z,9.73
2019-04-07T09:21:15.654Z,9.83
2019-04-07T09:23:48.017Z,9.60
2019-04-07T09:26:21.735Z,8.75
2019-04-07T09:28:58.916Z,8.00
2019-04-07T09:31:36.457Z,7.42
2019-04-07T09:34:11.527Z,8.53
2019-04-07T09:36:43.965Z,7.62
2019-04-07T09:39:16.610Z,8.78
2019-04-07T09:41:55.239Z,8.93
2019-04-07T09:44:43.477Z,9.03
2019-04-07T09:50:12.329Z,9.95
2019-04-07T09:53:00.145Z,8.65
2019-04-07T09:55:50.492Z,9.15
2019-04-07T09:58:25.187Z,8.60
2019-04-07T10:00:57.702Z,8.23
2019-04-07T10:03:39.168Z,8.58
2019-04-07T10:06:16.905Z,7.95
2019-04-07T10:08:48.615Z,8.53
2019-04-07T10:11:36.198Z,9.18
2019-04-07T10:14:08.037Z,9.30
2019-04-07T10:16:45.804Z,9.08
2019-04-07T10:19:32.837Z,8.55
2019-04-07T10:22:07.324Z,8.80
2019-04-07T10:24:51.729Z,9.60
2019-04-07T10:27:35.726Z,8.60
2019-04-07T10:30:14.736Z,8.93
2019-04-07T10:32:46.493Z,8.85
2019-04-07T10:35:34.911Z,8.60
2019-04-07T10:38:12.749Z,9.20
2019-04-07T10:40:53.638Z,8.68
2019-04-07T10:43:41.434Z,7.17
2019-04-07T10:46:16.798Z,7.22
2019-04-07T10:49:04.736Z,6.75
2019-04-07T10:51:48.924Z,7.28
2019-04-07T10:54:21.268Z,6.30
2019-04-07T10:57:08.375Z,6.28
2019-04-07T10:59:42.886Z,6.93
2019-04-07T11:02:18.092Z,6.58
2019-04-07T11:04:50.952Z,7.20
2019-04-07T11:07:22.678Z,6.92
2019-04-07T11:09:54.366Z,6.05
2019-04-07T11:12:37.956Z,6.50
2019-04-07T11:15:27.027Z,6.90
2019-04-07T11:18:15.220Z,7.33
2019-04-07T11:20:47.246Z,8.75
2019-04-07T11:23:19.008Z,7.97
2019-04-07T11:26:02.527Z,8.48
2019-04-07T11:28:46.906Z,7.92
2019-04-07T11:31:18.772Z,9.00
2019-04-07T11:33:55.524Z,8.98
2019-04-07T11:36:30.041Z,6.90
2019-04-07T11:39:13.612Z,5.40
2019-04-07T11:41:45.999Z,5.35
2019-04-07T11:44:19.918Z,7.33
2019-04-07T11:46:53.812Z,7.97
2019-04-07T11:49:31.727Z,6.37
2019-04-07T11:52:12.568Z,6.20
2019-04-07T11:54:50.100Z,6.90
2019-04-07T11:57:41.164Z,6.20
2019-04-07T12:00:26.963Z,5.40
2019-04-07T12:02:59.396Z,6.10
2019-04-07T12:05:37.830Z,5.83
2019-04-07T12:08:28.179Z,5.83
2019-04-07T12:11:04.665Z,4.95
2019-04-07T12:13:37.443Z,5.50
2019-04-07T12:16:12.105Z,6.40
2019-04-07T12:18:44.096Z,6.22
2019-04-07T12:21:23.231Z,7.00
2019-04-07T12:23:58.298Z,6.58
2019-04-07T12:26:30.229Z,7.65
2019-04-07T12:29:10.797Z,6.75
2019-04-07T12:31:48.680Z,6.53
2019-04-07T12:34:35.246Z,7.08
2019-04-07T12:37:10.308Z,8.35
2019-04-07T12:39:47.222Z,7.55
2019-04-07T12:42:18.157Z,6.53
2019-04-07T12:45:05.048Z,7.37
2019-04-07T12:47:37.980Z,6.00
2019-04-07T12:50:26.362Z,6.65
2019-04-07T12:53:10.205Z,6.58
2019-04-07T12:55:42.032Z,5.85
2019-04-07T12:58:32.362Z,6.60
2019-04-07T13:01:14.053Z,6.58
2019-04-07T13:03:40.819Z,6.40
2019-04-07T13:06:24.619Z,6.28
2019-04-07T13:08:57.181Z,5.87
2019-04-07T13:11:35.428Z,5.72
2019-04-07T13:14:15.179Z,4.62
2019-04-07T13:17:03.080Z,3.22
2019-04-07T13:19:35.892Z,6.05
2019-04-07T13:22:16.787Z,5.10
2019-04-07T13:25:07.788Z,4.35
2019-04-07T13:27:56.206Z,3.80
2019-04-07T13:30:45.631Z,3.50
2019-04-07T13:33:20.078Z,4.05
2019-04-07T13:35:53.694Z,3.55
2019-04-07T13:38:31.657Z,3.50
2019-04-07T13:41:20.270Z,4.05
2019-04-07T13:44:08.862Z,3.92
2019-04-07T13:46:41.158Z,4.65
2019-04-07T13:49:16.087Z,3.70
2019-04-07T13:51:48.094Z,3.08
2019-04-07T13:54:20.078Z,3.10
2019-04-07T13:56:54.872Z,3.30
2019-04-07T13:59:27.217Z,3.10
2019-04-07T14:02:16.364Z,3.67
2019-04-07T14:04:55.821Z,4.70
2019-04-07T14:07:35.932Z,4.25
2019-04-07T14:10:26.017Z,4.42
2019-04-07T14:13:04.160Z,3.90
2019-04-07T14:15:34.739Z,3.70
2019-04-07T14:18:19.120Z,4.60
2019-04-07T14:21:00.463Z,4.12
2019-04-07T14:23:33.073Z,4.08
2019-04-07T14:26:16.876Z,3.77
2019-04-07T14:28:51.227Z,3.40
2019-04-07T14:31:32.483Z,3.70
2019-04-07T14:34:04.277Z,3.95
2019-04-07T14:36:40.430Z,4.22
2019-04-07T14:39:24.879Z,4.17
2019-04-07T14:42:03.332Z,3.67
2019-04-07T14:44:35.849Z,3.40
2019-04-07T14:47:23.830Z,3.92
2019-04-07T14:52:28.903Z,4.47
2019-04-07T14:55:17.262Z,4.70
2019-04-07T14:58:05.653Z,4.83
2019-04-07T15:00:41.765Z,4.85
2019-04-07T15:03:12.024Z,4.47
2019-04-07T15:05:49.513Z,4.30
2019-04-07T15:08:21.600Z,4.65
2019-04-07T15:10:53.286Z,4.37
2019-04-07T15:13:28.068Z,4.17
2019-04-07T15:15:57.139Z,4.87
2019-04-07T15:18:27.607Z,5.58
2019-04-07T15:20:57.800Z,6.20
2019-04-07T15:23:31.663Z,6.22
2019-04-07T15:26:00.177Z,5.50
2019-04-07T15:28:32.028Z,5.47
2019-04-07T15:31:03.168Z,5.95
2019-04-07T15:33:34.173Z,5.97
2019-04-07T15:36:07.966Z,6.35
2019-04-07T15:38:40.217Z,5.72
2019-04-07T15:41:15.173Z,5.47
2019-04-07T15:43:44.109Z,5.72
2019-04-07T15:46:16.731Z,6.45
2019-04-07T15:48:46.563Z,5.20
2019-04-07T15:51:17.552Z,5.70
2019-04-07T15:53:51.348Z,5.67
2019-04-07T15:56:20.020Z,6.25
2019-04-07T15:58:51.718Z,7.00
2019-04-07T16:01:22.044Z,6.72
2019-04-07T16:03:53.838Z,6.90
2019-04-07T16:06:24.742Z,6.45
2019-04-07T16:08:57.297Z,6.53
2019-04-07T16:11:29.056Z,6.28
2019-04-07T16:13:59.487Z,24.07
2019-04-07T16:16:30.728Z,12.37
2019-04-07T16:19:01.446Z,10.95
2019-04-07T16:21:31.796Z,12.30
2019-04-07T16:24:02.110Z,15.58
2019-04-07T16:26:35.903Z,11.90
2019-04-07T16:29:07.651Z,12.88
2019-04-07T16:31:37.027Z,12.60
2019-04-07T16:34:08.836Z,13.25
2019-04-07T16:36:38.952Z,13.20
2019-04-07T16:39:09.947Z,13.25
2019-04-07T16:41:40.430Z,14.15
2019-04-07T16:44:11.911Z,13.58
2019-04-07T16:46:42.669Z,13.08
2019-04-07T16:49:13.679Z,13.40
2019-04-07T16:51:44.864Z,14.35
2019-04-07T16:54:16.398Z,13.43
2019-04-07T16:56:50.775Z,13.10
2019-04-07T16:59:19.310Z,14.05
2019-04-07T17:01:49.775Z,13.88
2019-04-07T17:04:20.175Z,14.20
2019-04-07T17:07:00.273Z,14.50
2019-04-07T17:09:25.071Z,13.25
2019-04-07T17:11:54.700Z,12.85
2019-04-07T17:14:25.732Z,12.73
2019-04-07T17:16:56.727Z,12.98
2019-04-07T17:19:27.574Z,13.20
2019-04-07T17:22:00.269Z,12.88
2019-04-07T17:24:30.596Z,14.00
2019-04-07T17:27:02.951Z,14.40
2019-04-07T17:29:32.685Z,14.20
2019-04-07T17:32:03.657Z,14.13
2019-04-07T17:34:47.601Z,14.98
2019-04-07T17:37:17.804Z,14.80
2019-04-07T17:39:55.870Z,15.85
2019-04-07T17:42:28.243Z,12.88
2019-04-07T17:45:20.386Z,12.55
2019-04-07T17:48:02.963Z,14.98
2019-04-07T17:50:38.952Z,13.75
2019-04-07T17:53:15.636Z,14.87
2019-04-07T17:55:51.555Z,14.07
2019-04-07T18:01:02.700Z,15.05
2019-04-07T18:03:36.590Z,13.48
2019-04-07T18:06:18.125Z,14.07
2019-04-07T18:09:10.758Z,15.88
2019-04-07T18:11:39.284Z,14.18
2019-04-07T18:14:28.695Z,14.93
2019-04-07T18:17:03.223Z,15.90
2019-04-07T18:19:36.036Z,16.37
2019-04-07T18:22:08.203Z,14.58
2019-04-07T18:24:43.510Z,14.10
2019-04-07T18:27:24.241Z,15.30
2019-04-07T18:29:59.695Z,14.60
2019-04-07T18:32:41.777Z,15.48
2019-04-07T18:35:15.239Z,16.02
2019-04-07T18:37:53.163Z,14.87
2019-04-07T18:40:37.497Z,15.72
2019-04-07T18:43:14.771Z,14.45
2019-04-07T18:45:48.061Z,13.43
2019-04-07T18:48:24.683Z,12.75
2019-04-07T18:50:57.620Z,12.82
2019-04-07T18:53:32.148Z,12.55
2019-04-07T18:56:06.608Z,11.93
2019-04-07T18:58:37.212Z,12.65
2019-04-07T19:01:25.421Z,12.30
2019-04-07T19:04:06.939Z,12.53
2019-04-07T19:06:42.090Z,11.95
2019-04-07T19:09:12.232Z,12.37
2019-04-07T19:12:08.158Z,12.73
2019-04-07T19:14:50.239Z,12.95
2019-04-07T19:17:35.004Z,12.60
2019-04-07T19:20:24.817Z,12.78
2019-04-07T19:23:12.819Z,13.72
2019-04-07T19:28:21.713Z,12.82
2019-04-07T19:31:02.472Z,12.82
2019-04-07T19:33:34.280Z,13.15
2019-04-07T19:36:19.225Z,12.63
2019-04-07T19:39:00.687Z,12.88
2019-04-07T19:41:42.944Z,13.38
2019-04-07T19:44:37.155Z,13.45
2019-04-07T19:47:06.534Z,13.50
2019-04-07T19:49:38.975Z,14.15
2019-04-07T19:52:20.885Z,13.53
2019-04-07T19:54:57.835Z,14.10
2019-04-07T19:57:36.425Z,13.83
2019-04-07T20:00:27.728Z,17.02
2019-04-07T20:03:03.703Z,43.08
2019-04-07T20:05:48.814Z,19.48
2019-04-07T20:08:24.877Z,16.07
2019-04-07T20:11:11.863Z,17.40
2019-04-07T20:13:44.354Z,21.85
2019-04-07T20:16:17.365Z,20.32
2019-04-07T20:19:01.142Z,28.05
2019-04-07T20:21:49.373Z,24.35
2019-04-07T20:24:36.751Z,21.70
2019-04-07T20:27:12.607Z,22.95
2019-04-07T20:29:50.156Z,21.90
2019-04-07T20:32:28.146Z,23.85
2019-04-07T20:35:18.716Z,23.22
2019-04-07T20:38:02.084Z,22.82
2019-04-07T20:40:50.768Z,22.07
2019-04-07T20:43:23.541Z,22.85
2019-04-07T20:46:11.805Z,25.05
2019-04-07T20:49:00.421Z,22.52
2019-04-07T20:51:51.970Z,24.77
2019-04-07T20:54:27.471Z,26.02
2019-04-07T20:57:18.400Z,25.88
2019-04-07T20:59:56.453Z,25.85
2019-04-07T21:02:43.942Z,27.93
2019-04-07T21:05:32.020Z,26.07
2019-04-07T21:08:24.295Z,24.55
2019-04-07T21:11:01.581Z,25.05
2019-04-07T21:13:50.384Z,25.10
2019-04-07T21:16:29.810Z,26.45
2019-04-07T21:19:11.319Z,26.10
2019-04-07T21:21:49.248Z,27.95
2019-04-07T21:24:37.187Z,25.60
2019-04-07T21:27:14.465Z,26.15
2019-04-07T21:32:25.068Z,22.98
2019-04-07T21:35:00.488Z,23.05
2019-04-07T21:37:35.903Z,22.93
2019-04-07T21:40:11.343Z,22.15
2019-04-07T21:42:59.441Z,23.02
2019-04-07T21:45:37.475Z,23.25
2019-04-07T21:48:10.133Z,22.60
2019-04-07T21:53:28.865Z,31.82
2019-04-07T21:56:14.354Z,34.88
2019-04-07T21:59:02.118Z,29.15
2019-04-07T22:01:52.903Z,34.38
2019-04-07T22:04:36.450Z,26.82
2019-04-07T22:07:23.430Z,49.42
2019-04-07T22:09:55.139Z,35.65
2019-04-07T22:12:28.673Z,55.20
2019-04-07T22:14:57.095Z,45.73
2019-04-07T22:17:32.601Z,41.88
2019-04-07T22:20:01.262Z,38.60
2019-04-07T22:22:33.176Z,42.65
2019-04-07T22:25:07.912Z,35.78
2019-04-07T22:27:36.079Z,32.90
2019-04-07T22:30:11.312Z,41.58
2019-04-07T22:32:41.418Z,39.53
2019-04-07T22:35:12.660Z,40.38
2019-04-07T22:37:43.873Z,37.10
2019-04-07T22:40:19.722Z,36.00
2019-04-07T22:42:50.051Z,37.42
2019-04-07T22:45:25.129Z,49.53
2019-04-07T22:47:52.863Z,37.58
2019-04-07T22:50:23.977Z,41.35
2019-04-07T22:52:55.385Z,42.15
2019-04-07T22:55:25.655Z,39.70
2019-04-07T22:57:55.847Z,45.28
2019-04-07T23:00:26.904Z,45.63
2019-04-07T23:02:57.314Z,41.35
2019-04-07T23:05:27.709Z,42.65
2019-04-07T23:07:57.961Z,38.20
2019-04-07T23:10:28.031Z,37.05
2019-04-07T23:12:58.150Z,38.90
2019-04-07T23:15:38.598Z,37.45
2019-04-07T23:18:00.171Z,37.15
2019-04-07T23:20:31.146Z,35.60
2019-04-07T23:23:01.391Z,36.20
2019-04-07T23:25:32.197Z,35.03
2019-04-07T23:28:02.717Z,35.10
2019-04-07T23:30:33.361Z,35.52
2019-04-07T23:33:04.173Z,33.88
2019-04-07T23:35:35.077Z,33.40
2019-04-07T23:38:05.805Z,33.85
2019-04-07T23:40:36.166Z,35.13
2019-04-07T23:43:06.340Z,34.38
2019-04-07T23:45:36.457Z,35.60
2019-04-07T23:48:07.012Z,35.17
2019-04-07T23:50:39.125Z,34.50
2019-04-07T23:53:47.035Z,35.23
2019-04-07T23:58:47.615Z,36.85
